Time;durP1;ratioP1;P1;durP2;ratioP2;P2;SDS_P1;SDS_P2;PMS_P1;PMS_P2;Temp;Humidity;BMP_temperature;BMP_pressure;BME280_temperature;BME280_humidity;BME280_pressure;Samples;Min_cycle;Max_cycle;Signal;HPM_P1;HPM_P2
2022/09/04 00:00:10;;;;;;;14.00;3.90;;;;;;;26.93;44.41;100853.56;5093000;28;20040;-51
2022/09/04 00:02:59;;;;;;;13.57;3.95;;;;;;;26.94;44.51;100854.44;5092241;28;20044;-50
2022/09/04 00:05:45;;;;;;;14.88;3.60;;;;;;;26.93;44.43;100850.06;5083499;28;20446;-47
2022/09/04 00:08:36;;;;;;;17.80;3.80;;;;;;;26.88;44.59;100850.06;5092794;28;20024;-48
2022/09/04 00:11:12;;;;;;;14.63;3.90;;;;;;;26.86;44.43;100854.47;5074756;28;20024;-47
2022/09/04 00:13:46;;;;;;;17.50;5.45;;;;;;;26.93;44.38;100852.69;5092868;28;20108;-49
2022/09/04 00:16:19;;;;;;;15.13;5.00;;;;;;;26.91;44.34;100851.81;5075259;28;20355;-51
2022/09/04 00:19:01;;;;;;;13.82;4.10;;;;;;;26.90;44.27;100850.06;5092630;28;20721;-50
2022/09/04 00:21:50;;;;;;;16.73;4.70;;;;;;;26.94;44.42;100849.19;5074763;28;20062;-51
2022/09/04 00:24:21;;;;;;;16.15;4.65;;;;;;;26.99;44.24;100848.28;5092398;28;20024;-48
2022/09/04 00:26:57;;;;;;;16.02;4.18;;;;;;;26.94;44.48;100846.56;5074480;28;20028;-51
2022/09/04 00:29:37;;;;;;;14.13;4.53;;;;;;;27.01;44.69;100852.69;5092876;28;20373;-51
2022/09/04 00:32:25;;;;;;;17.67;4.72;;;;;;;26.98;44.30;100846.53;5074713;28;20185;-52
2022/09/04 00:34:58;;;;;;;13.48;4.25;;;;;;;26.94;44.25;100855.31;5074604;28;20084;-52
2022/09/04 00:37:33;;;;;;;14.35;3.65;;;;;;;26.83;44.55;100857.94;5074929;28;20058;-51
2022/09/04 00:40:08;;;;;;;15.50;4.43;;;;;;;26.84;44.51;100851.81;5075344;28;20365;-51
2022/09/04 00:43:09;;;;;;;13.60;4.13;;;;;;;26.87;44.55;100850.94;5092593;28;20029;-51
2022/09/04 00:45:57;;;;;;;12.65;4.20;;;;;;;26.82;44.61;100850.06;5090462;28;20028;-51
2022/09/04 00:48:55;;;;;;;20.27;5.25;;;;;;;26.75;44.64;100843.91;5064036;28;20040;-53
2022/09/04 00:52:01;;;;;;;19.02;4.00;;;;;;;26.78;44.63;100849.16;5082532;28;20074;-51
2022/09/04 00:54:53;;;;;;;18.08;4.57;;;;;;;26.83;44.53;100841.28;5085644;28;20032;-51
2022/09/04 00:57:51;;;;;;;15.38;3.85;;;;;;;26.82;44.43;100836.91;5084057;28;20040;-50
2022/09/04 01:00:20;;;;;;;13.65;4.20;;;;;;;26.82;44.58;100840.41;5085226;28;20035;-50
2022/09/04 01:03:07;;;;;;;13.68;4.20;;;;;;;26.73;44.58;100823.72;5092025;28;20048;-50
2022/09/04 01:06:03;;;;;;;17.73;4.22;;;;;;;26.75;44.75;100843.91;5083698;28;20040;-52
2022/09/04 01:08:49;;;;;;;;;;;;;;;26.80;44.70;100836.91;5087550;28;20043;-49
2022/09/04 01:11:19;;;;;;;19.80;4.78;;;;;;;26.91;44.27;100841.28;5085918;28;19998;-50
2022/09/04 01:14:28;;;;;;;14.25;3.85;;;;;;;26.65;45.00;100834.25;5096080;28;20032;-51
2022/09/04 01:17:17;;;;;;;16.48;4.10;;;;;;;26.70;45.01;100832.50;5090137;28;20397;-49
2022/09/04 01:19:53;;;;;;;18.00;4.60;;;;;;;26.69;45.00;100846.53;5096281;28;20024;-49
2022/09/04 01:22:28;;;;;;;18.17;5.32;;;;;;;26.66;44.94;100838.63;5078113;28;20120;-51
2022/09/04 01:25:05;;;;;;;;;;;;;;;26.74;44.87;100846.50;5096647;28;20024;-51
2022/09/04 01:28:11;;;;;;;18.73;4.78;;;;;;;26.74;44.76;100843.88;5077906;28;19912;-50
2022/09/04 01:31:18;;;;;;;20.40;4.45;;;;;;;26.84;44.54;100849.19;5093168;28;20024;-51
2022/09/04 01:34:05;;;;;;;19.50;5.13;;;;;;;26.81;44.67;100840.41;5078000;28;20036;-50
2022/09/04 01:37:00;;;;;;;18.48;5.13;;;;;;;26.68;44.87;100842.13;5086492;28;20040;-52
2022/09/04 01:39:32;;;;;;;18.17;4.55;;;;;;;26.83;44.53;100841.28;5086339;28;20036;-51
2022/09/04 01:42:32;;;;;;;17.48;4.60;;;;;;;26.80;44.83;100852.72;5077720;28;20032;-52
2022/09/04 01:45:01;;;;;;;19.85;5.15;;;;;;;26.76;44.91;100844.75;5091742;28;20052;-53
2022/09/04 01:47:39;;;;;;;19.50;4.88;;;;;;;26.69;45.10;100846.53;5095762;28;20406;-50
2022/09/04 01:50:13;;;;;;;14.88;4.40;;;;;;;26.72;45.15;100843.91;5077571;28;20103;-49
2022/09/04 01:53:05;;;;;;;20.70;5.53;;;;;;;26.65;45.21;100847.41;5095478;28;20046;-51
2022/09/04 01:55:56;;;;;;;19.70;5.25;;;;;;;26.67;45.16;100840.38;5088074;28;20058;-51
2022/09/04 01:58:28;;;;;;;15.82;4.43;;;;;;;26.59;45.21;100837.75;5095129;28;20020;-51
2022/09/04 02:01:06;;;;;;;21.23;5.20;;;;;;;26.62;45.30;100843.03;5077809;28;20050;-50
2022/09/04 02:03:55;;;;;;;13.30;4.20;;;;;;;26.64;45.08;100841.28;5077120;28;20044;-50
2022/09/04 02:06:43;;;;;;;16.63;4.03;;;;;;;26.68;44.96;100845.66;5077422;28;20478;-49
2022/09/04 02:09:15;;;;;;;17.75;4.35;;;;;;;26.59;45.26;100842.16;5077001;28;20496;-50
2022/09/04 02:11:52;;;;;;;14.55;4.60;;;;;;;26.56;45.45;100850.91;5095082;28;20032;-48
2022/09/04 02:14:42;;;;;;;17.00;4.43;;;;;;;26.50;45.50;100838.63;5077251;28;20438;-46
2022/09/04 02:17:18;;;;;;;15.48;4.15;;;;;;;26.60;45.33;100842.13;5094986;28;20036;-48
2022/09/04 02:19:58;;;;;;;18.77;4.68;;;;;;;26.52;45.55;100846.53;5077181;28;20043;-47
2022/09/04 02:22:52;;;;;;;15.75;4.35;;;;;;;26.48;45.56;100848.28;5094925;28;20032;-47
2022/09/04 02:25:22;;;;;;;21.00;5.45;;;;;;;26.46;45.72;100849.16;5088674;28;20071;-52
2022/09/04 02:28:10;;;;;;;16.63;4.63;;;;;;;26.41;45.70;100849.16;5094806;28;20036;-51
2022/09/04 02:30:51;;;;;;;18.52;4.28;;;;;;;26.45;45.91;100858.81;5095075;28;20020;-49
2022/09/04 02:33:40;;;;;;;15.88;4.20;;;;;;;26.45;45.72;100850.03;5094232;28;20097;-51
2022/09/04 02:36:21;;;;;;;13.82;4.65;;;;;;;26.49;45.88;100855.28;5085511;28;20069;-51
2022/09/04 02:39:15;;;;;;;16.02;4.72;;;;;;;26.45;45.81;100857.91;5077013;28;20024;-52
2022/09/04 02:41:50;;;;;;;16.40;4.80;;;;;;;26.46;45.68;100847.41;5076414;28;20381;-51
2022/09/04 02:44:26;;;;;;;;;;;;;;;26.51;45.75;100853.53;5077226;28;20114;-52
2022/09/04 02:47:29;;;;;;;14.95;4.70;;;;;;;26.63;45.57;100857.94;5094141;28;19912;-47
2022/09/04 02:50:37;;;;;;;19.60;5.38;;;;;;;26.53;45.68;100846.53;5086223;28;20040;-51
2022/09/04 02:53:24;;;;;;;19.05;4.57;;;;;;;26.49;45.59;100860.53;5086276;28;20043;-51
2022/09/04 02:55:57;;;;;;;18.23;4.20;;;;;;;26.37;45.71;100853.53;5083150;28;20405;-49
2022/09/04 02:59:04;;;;;;;15.77;4.03;;;;;;;26.46;45.62;100844.78;5094273;28;20381;-50
2022/09/04 03:01:41;;;;;;;19.77;4.88;;;;;;;26.50;45.65;100843.88;5085205;28;20042;-48
2022/09/04 03:04:37;;;;;;;16.83;4.13;;;;;;;26.52;45.70;100844.78;5093934;28;20044;-54
2022/09/04 03:07:29;;;;;;;19.05;4.18;;;;;;;26.48;45.69;100848.28;5070459;28;20486;-50
2022/09/04 03:10:09;;;;;;;19.13;4.45;;;;;;;26.46;45.91;100841.25;5037292;28;20043;-48
2022/09/04 03:12:40;;;;;;;18.00;4.72;;;;;;;26.48;45.61;100850.91;5094248;28;20548;-52
2022/09/04 03:15:29;;;;;;;19.48;5.07;;;;;;;26.53;45.68;100849.16;5075648;28;20032;-47
2022/09/04 03:18:19;;;;;;;15.20;4.72;;;;;;;26.50;45.84;100854.41;5068906;28;20528;-51
2022/09/04 03:20:59;;;;;;;23.45;5.35;;;;;;;26.57;45.53;100852.66;5075952;28;20032;-52
2022/09/04 03:23:48;;;;;;;17.90;5.05;;;;;;;26.52;45.62;100850.03;5076498;28;20052;-51
2022/09/04 03:26:37;;;;;;;20.35;4.82;;;;;;;26.51;45.89;100850.03;5093707;28;20035;-51
2022/09/04 03:29:15;;;;;;;19.13;5.30;;;;;;;26.44;46.13;100853.53;5075724;28;20103;-52
2022/09/04 03:32:05;;;;;;;20.55;5.22;;;;;;;26.38;46.13;100849.16;5093044;28;20038;-50
2022/09/04 03:35:02;;;;;;;17.98;3.92;;;;;;;26.42;46.00;100856.16;5085200;28;20075;-51
2022/09/04 03:37:53;;;;;;;16.83;4.38;;;;;;;26.46;46.14;100851.78;5082606;28;20036;-52
2022/09/04 03:40:41;;;;;;;17.08;4.50;;;;;;;26.48;45.91;100853.53;5067852;28;20496;-48
2022/09/04 03:43:29;;;;;;;19.52;4.55;;;;;;;26.47;45.92;100858.81;5066369;28;20040;-48
2022/09/04 03:46:03;;;;;;;18.38;4.95;;;;;;;26.48;45.98;100850.03;5093249;28;20059;-50
2022/09/04 03:48:46;;;;;;;15.93;4.40;;;;;;;26.38;46.11;100841.25;5093372;28;20032;-52
2022/09/04 03:51:38;;;;;;;15.30;3.70;;;;;;;26.44;46.13;100858.78;5075288;28;20031;-46
2022/09/04 03:54:09;;;;;;;16.33;4.35;;;;;;;26.43;46.37;100849.16;5086203;28;20165;-47
2022/09/04 03:57:01;;;;;;;17.98;4.30;;;;;;;26.37;46.29;100856.19;5093173;28;20035;-49
2022/09/04 03:59:39;;;;;;;19.08;5.20;;;;;;;26.32;46.91;100854.38;5086492;28;20406;-46
2022/09/04 04:02:21;;;;;;;19.55;4.53;;;;;;;26.27;46.91;100861.41;5092849;28;20055;-52
2022/09/04 04:05:13;;;;;;;22.65;5.20;;;;;;;26.31;46.58;100853.53;5093070;28;20040;-47
2022/09/04 04:07:51;;;;;;;21.42;5.15;;;;;;;26.27;46.53;100849.13;5092845;28;20032;-47
2022/09/04 04:10:32;;;;;;;20.75;4.20;;;;;;;26.24;46.46;100851.75;5092986;28;20107;-48
2022/09/04 04:13:14;;;;;;;17.17;4.70;;;;;;;26.26;46.38;100850.00;5075260;28;20023;-47
2022/09/04 04:15:43;;;;;;;17.05;4.43;;;;;;;26.22;46.30;100853.53;5074919;28;20028;-48
2022/09/04 04:18:30;;;;;;;16.58;5.05;;;;;;;26.26;46.18;100849.13;5092772;28;20028;-46
2022/09/04 04:21:17;;;;;;;20.02;5.72;;;;;;;26.29;46.10;100849.16;5092567;28;20024;-46
2022/09/04 04:24:27;;;;;;;19.50;4.28;;;;;;;26.27;46.23;100837.75;5073376;28;20040;-48
2022/09/04 04:26:56;;;;;;;15.80;4.75;;;;;;;26.24;46.16;100852.66;5085513;28;20036;-47
2022/09/04 04:29:44;;;;;;;24.50;6.43;;;;;;;26.23;46.16;100853.50;5092744;28;20107;-46
2022/09/04 04:32:32;;;;;;;24.33;5.38;;;;;;;26.23;46.11;100855.25;5092531;28;20036;-48
2022/09/04 04:35:02;;;;;;;16.48;4.60;;;;;;;26.23;46.21;100852.63;5081153;28;20473;-51
2022/09/04 04:37:35;;;;;;;12.50;3.60;;;;;;;26.26;46.02;100847.38;5092562;28;20032;-48
2022/09/04 04:40:08;;;;;;;21.13;5.18;;;;;;;26.28;45.95;100850.03;5092118;28;20494;-48
2022/09/04 04:43:06;;;;;;;20.30;5.13;;;;;;;26.23;45.88;100855.25;5091412;28;20024;-50
2022/09/04 04:45:59;;;;;;;16.83;4.53;;;;;;;26.15;45.91;100830.72;5086987;28;20061;-51
2022/09/04 04:48:59;;;;;;;18.40;5.03;;;;;;;26.18;46.14;100835.97;5092145;28;20393;-52
2022/09/04 04:51:46;;;;;;;18.95;5.38;;;;;;;26.23;45.97;100856.16;5084399;28;20048;-48
2022/09/04 04:54:52;;;;;;;20.17;4.88;;;;;;;26.18;46.26;100855.25;5081484;28;20032;-50
2022/09/04 04:57:52;;;;;;;15.35;5.05;;;;;;;26.20;46.24;100852.63;5083360;28;20425;-53
2022/09/04 05:00:24;;;;;;;18.30;5.03;;;;;;;26.26;46.22;100857.03;5074450;28;20428;-54
2022/09/04 05:03:01;;;;;;;17.45;4.75;;;;;;;26.14;46.58;100861.41;5074264;28;20097;-49
2022/09/04 05:06:05;;;;;;;29.30;6.10;;;;;;;26.10;46.86;100859.59;5092166;28;20031;-51
2022/09/04 05:09:12;;;;;;;23.67;5.65;;;;;;;26.11;46.81;100861.38;5092182;28;20062;-51
2022/09/04 05:11:40;;;;;;;19.25;5.90;;;;;;;26.20;46.65;100866.66;5073223;28;20031;-51
2022/09/04 05:14:46;;;;;;;17.15;5.35;;;;;;;26.15;46.76;100870.16;5092170;28;20020;-49
2022/09/04 05:17:34;;;;;;;20.90;5.28;;;;;;;26.13;46.66;100870.16;5085420;28;20036;-49
2022/09/04 05:20:25;;;;;;;19.45;4.60;;;;;;;26.20;46.56;100876.31;5074191;28;20051;-47
2022/09/04 05:23:05;;;;;;;21.10;4.78;;;;;;;26.27;46.39;100878.06;5091531;28;20016;-49
2022/09/04 05:25:41;;;;;;;23.00;5.30;;;;;;;26.17;46.75;100882.41;5074224;28;20016;-47
2022/09/04 05:28:30;;;;;;;21.02;4.88;;;;;;;26.21;46.57;100889.44;5074472;28;20107;-48
2022/09/04 05:31:20;;;;;;;18.77;4.63;;;;;;;26.23;46.64;100879.81;5057498;28;20123;-55
2022/09/04 05:34:08;;;;;;;18.02;4.65;;;;;;;26.26;46.50;100889.44;5066077;28;20394;-46
2022/09/04 05:37:00;;;;;;;23.92;5.85;;;;;;;26.32;46.03;100885.94;5091880;28;20037;-49
2022/09/04 05:39:32;;;;;;;19.60;4.72;;;;;;;26.36;46.38;100892.97;5083801;28;20035;-50
2022/09/04 05:42:38;;;;;;;19.92;4.72;;;;;;;26.29;46.74;100888.59;5092081;28;20020;-51
2022/09/04 05:45:18;;;;;;;15.70;5.25;;;;;;;26.31;46.72;100892.09;5083042;28;20036;-48
2022/09/04 05:48:25;;;;;;;15.05;4.88;;;;;;;26.30;46.79;100901.72;5073926;28;20044;-50
2022/09/04 05:50:56;;;;;;;17.83;4.63;;;;;;;26.35;46.69;100902.63;5091566;28;20035;-47
2022/09/04 05:54:03;;;;;;;17.23;4.88;;;;;;;26.24;46.86;100899.97;5091912;28;20035;-47
2022/09/04 05:57:09;;;;;;;14.48;4.38;;;;;;;26.20;46.97;100898.19;5086785;28;20043;-49
2022/09/04 05:59:53;;;;;;;17.15;4.85;;;;;;;26.24;46.80;100894.72;5095454;28;20024;-47
2022/09/04 06:02:43;;;;;;;15.77;4.03;;;;;;;26.26;46.62;100905.22;5094749;28;20116;-52
2022/09/04 06:05:50;;;;;;;16.95;4.10;;;;;;;26.34;46.51;100907.88;5095094;28;20584;-49
2022/09/04 06:08:40;;;;;;;17.00;4.88;;;;;;;26.21;46.64;100907.84;5077326;28;20063;-47
2022/09/04 06:11:34;;;;;;;14.38;4.78;;;;;;;26.19;46.62;100920.09;5086329;28;20040;-47
2022/09/04 06:14:40;;;;;;;15.73;4.30;;;;;;;26.18;46.79;100920.13;5088208;28;20081;-48
2022/09/04 06:17:21;;;;;;;15.65;4.47;;;;;;;26.20;46.67;100921.88;5095198;28;20078;-47
2022/09/04 06:20:09;;;;;;;17.05;4.40;;;;;;;26.26;46.60;100922.78;5095251;28;20024;-47
2022/09/04 06:22:50;;;;;;;20.67;5.13;;;;;;;26.21;46.39;100928.88;5085563;28;20584;-47
2022/09/04 06:25:51;;;;;;;14.95;4.47;;;;;;;26.20;46.79;100935.00;5076969;28;20023;-49
2022/09/04 06:28:40;;;;;;;18.35;4.13;;;;;;;26.09;46.86;100916.53;5074054;28;20032;-47
2022/09/04 06:31:27;;;;;;;18.92;4.80;;;;;;;26.17;46.52;100942.88;5076788;28;20076;-46
2022/09/04 06:34:14;;;;;;;15.57;4.15;;;;;;;26.11;46.58;100924.47;5094891;28;20016;-47
2022/09/04 06:36:51;;;;;;;23.77;4.90;;;;;;;26.22;46.57;100949.03;5094310;28;20028;-47
2022/09/04 06:39:47;;;;;;;19.42;4.60;;;;;;;26.28;46.43;100949.94;5076180;28;20382;-49
2022/09/04 06:42:35;;;;;;;19.23;5.32;;;;;;;26.25;46.64;100942.91;5071196;28;20032;-46
2022/09/04 06:45:23;;;;;;;21.60;4.55;;;;;;;26.20;46.63;100949.94;5085764;28;20437;-50
2022/09/04 06:48:13;;;;;;;14.85;4.80;;;;;;;26.23;46.98;100950.81;5085468;28;20047;-51
2022/09/04 06:51:01;;;;;;;14.63;3.75;;;;;;;26.22;46.76;100950.81;5093996;28;20342;-55
2022/09/04 06:53:41;;;;;;;15.85;4.00;;;;;;;26.28;46.81;100949.94;5094064;28;20032;-51
2022/09/04 06:56:47;;;;;;;21.15;5.22;;;;;;;26.26;46.66;100943.81;5076219;28;20028;-54
2022/09/04 06:59:22;;;;;;;;;;;;;;;26.27;46.64;100959.56;5094465;28;20028;-50
2022/09/04 07:02:09;;;;;;;14.95;3.60;;;;;;;26.27;46.63;100956.94;5076529;28;19908;-49
2022/09/04 07:05:04;;;;;;;23.10;4.78;;;;;;;26.30;46.63;100962.22;5084340;28;20040;-48
2022/09/04 07:07:39;;;;;;;12.50;3.80;;;;;;;26.29;46.56;100956.97;5087119;28;20081;-50
2022/09/04 07:10:12;;;;;;;15.13;4.28;;;;;;;26.19;46.55;100954.28;5093998;28;20040;-51
2022/09/04 07:13:11;;;;;;;15.93;4.28;;;;;;;26.21;46.88;100962.19;5075878;28;20103;-50
2022/09/04 07:15:43;;;;;;;11.05;3.58;;;;;;;26.23;46.69;100966.59;5071487;28;20028;-47
2022/09/04 07:18:30;;;;;;;16.10;4.07;;;;;;;26.10;46.69;100956.88;5093910;28;20020;-51
2022/09/04 07:21:05;;;;;;;17.88;4.22;;;;;;;26.20;46.71;100977.09;5084105;28;20044;-47
2022/09/04 07:24:11;;;;;;;15.00;4.03;;;;;;;26.18;46.85;100985.84;5093869;28;20036;-49
2022/09/04 07:27:01;;;;;;;13.27;4.07;;;;;;;26.27;46.58;100983.25;5093009;28;20538;-54
2022/09/04 07:29:33;;;;;;;12.57;4.07;;;;;;;26.28;46.55;100992.03;5076006;28;20111;-51
2022/09/04 07:32:22;;;;;;;12.82;3.70;;;;;;;26.27;46.76;100996.38;5075874;28;20024;-50
2022/09/04 07:35:16;;;;;;;17.90;4.05;;;;;;;26.28;46.68;100992.03;5075799;28;20027;-48
2022/09/04 07:38:15;;;;;;;10.85;3.40;;;;;;;26.24;46.72;101001.63;5075818;28;20451;-49
2022/09/04 07:41:04;;;;;;;18.00;4.30;;;;;;;26.22;46.68;100995.50;5075043;28;20028;-49
2022/09/04 07:43:51;;;;;;;15.10;4.13;;;;;;;26.30;46.68;101004.28;5067339;28;20064;-51
2022/09/04 07:46:43;;;;;;;12.27;3.30;;;;;;;26.36;46.34;101003.44;5083297;28;20123;-49
2022/09/04 07:49:31;;;;;;;13.02;3.40;;;;;;;26.35;46.53;101004.31;5085190;28;20473;-48
2022/09/04 07:52:20;;;;;;;12.73;3.42;;;;;;;26.32;46.50;100999.94;5064664;28;20481;-51
2022/09/04 07:55:08;;;;;;;13.57;3.67;;;;;;;26.32;46.63;100999.94;5082761;28;20032;-50
2022/09/04 07:57:46;;;;;;;17.00;4.32;;;;;;;26.35;46.97;101004.31;5075015;28;20047;-49
2022/09/04 08:00:17;;;;;;;15.32;3.78;;;;;;;26.41;46.46;101012.22;5093046;28;20504;-48
2022/09/04 08:03:13;;;;;;;18.88;3.97;;;;;;;26.26;47.00;101012.19;5058614;28;20075;-52
2022/09/04 08:05:55;;;;;;;18.50;3.70;;;;;;;26.33;46.94;101013.94;5083886;28;20032;-52
2022/09/04 08:08:35;;;;;;;18.42;4.13;;;;;;;26.38;46.75;101014.84;5103060;28;20039;-52
2022/09/04 08:11:21;;;;;;;17.98;4.15;;;;;;;26.38;46.74;101017.47;5084565;28;20036;-50
2022/09/04 08:14:27;;;;;;;16.95;4.10;;;;;;;26.35;47.03;101018.34;5096847;28;20089;-51
2022/09/04 08:17:24;;;;;;;16.38;4.00;;;;;;;26.42;46.85;101019.25;5096648;28;20435;-50
2022/09/04 08:20:01;;;;;;;14.25;4.20;;;;;;;26.44;46.87;101024.50;5097155;28;20405;-55
2022/09/04 08:23:07;;;;;;;17.30;3.75;;;;;;;26.46;46.76;101026.28;5101830;28;20016;-50
2022/09/04 08:26:13;;;;;;;15.32;3.80;;;;;;;26.43;46.83;101026.28;5091480;28;20039;-52
2022/09/04 08:29:19;;;;;;;15.05;4.05;;;;;;;26.45;47.02;101029.78;5086408;28;20027;-50
2022/09/04 08:32:04;;;;;;;14.40;3.47;;;;;;;26.43;47.16;101028.91;5103643;28;20514;-47
2022/09/04 08:34:35;;;;;;;12.23;3.67;;;;;;;26.48;47.01;101028.91;5094567;28;20023;-52
2022/09/04 08:37:07;;;;;;;16.45;4.28;;;;;;;26.50;46.62;101030.66;5078004;28;20101;-49
2022/09/04 08:40:00;;;;;;;17.05;4.30;;;;;;;26.48;47.02;101034.16;5094707;28;20016;-47
2022/09/04 08:42:56;;;;;;;15.38;4.00;;;;;;;26.54;46.82;101036.84;5094192;28;20036;-48
2022/09/04 08:45:49;;;;;;;20.08;4.55;;;;;;;26.55;46.76;101043.84;5101382;28;20038;-49
2022/09/04 08:48:36;;;;;;;12.98;3.20;;;;;;;26.57;46.77;101039.44;5077960;28;20036;-49
2022/09/04 08:51:33;;;;;;;16.80;3.90;;;;;;;26.58;46.75;101048.25;5102131;28;20114;-51
2022/09/04 08:54:20;;;;;;;13.32;3.30;;;;;;;26.59;46.60;101053.50;5101565;28;20043;-50
2022/09/04 08:57:17;;;;;;;19.73;4.70;;;;;;;26.53;47.09;101056.97;5102232;28;20031;-52
2022/09/04 09:00:09;;;;;;;14.20;4.32;;;;;;;26.54;46.84;101061.38;5099583;28;20043;-55
2022/09/04 09:02:56;;;;;;;18.00;4.65;;;;;;;26.57;46.68;101060.50;5089102;28;20079;-51
2022/09/04 09:05:46;;;;;;;18.80;4.28;;;;;;;26.59;46.75;101063.16;5052041;28;20052;-52
2022/09/04 09:08:27;;;;;;;20.20;5.07;;;;;;;26.59;46.85;101069.28;5086435;28;20044;-50
2022/09/04 09:11:33;;;;;;;13.98;4.10;;;;;;;26.58;46.87;101070.16;5073072;28;20048;-53
2022/09/04 09:14:02;;;;;;;13.45;3.47;;;;;;;26.57;46.77;101071.03;5078754;28;20054;-53
2022/09/04 09:16:56;;;;;;;13.88;4.20;;;;;;;26.56;46.87;101077.16;5091137;28;20028;-53
2022/09/04 09:19:44;;;;;;;13.75;4.03;;;;;;;26.55;46.78;101072.78;5064098;28;20501;-53
2022/09/04 09:22:16;;;;;;;13.23;3.60;;;;;;;26.58;46.68;101079.81;5062457;28;20093;-52
2022/09/04 09:25:00;;;;;;;16.13;3.50;;;;;;;26.61;46.58;101075.44;5090782;28;20508;-51
2022/09/04 09:27:37;;;;;;;14.77;4.30;;;;;;;26.61;46.73;101080.69;5069371;28;20486;-52
2022/09/04 09:30:16;;;;;;;9.80;3.50;;;;;;;26.65;46.46;101078.94;5092858;28;20017;-51
2022/09/04 09:33:04;;;;;;;13.40;3.50;;;;;;;26.69;46.39;101089.50;5085298;28;20053;-52
2022/09/04 09:35:36;;;;;;;14.88;4.30;;;;;;;26.72;46.48;101083.38;5092257;28;20405;-53
2022/09/04 09:38:22;;;;;;;20.13;3.70;;;;;;;26.71;46.66;101086.00;5086143;28;20443;-51
2022/09/04 09:40:59;;;;;;;19.10;4.80;;;;;;;26.75;46.57;101091.28;5103877;28;20118;-53
2022/09/04 09:43:40;;;;;;;18.23;3.92;;;;;;;26.72;46.66;101088.63;5104060;28;20035;-50
2022/09/04 09:46:26;;;;;;;15.70;3.97;;;;;;;26.69;46.80;101078.97;5099769;28;20024;-52
2022/09/04 09:49:12;;;;;;;18.63;4.80;;;;;;;26.74;46.78;101084.25;5086045;28;20032;-53
2022/09/04 09:52:18;;;;;;;18.02;4.10;;;;;;;26.79;46.63;101090.44;5093541;28;20032;-54
2022/09/04 09:55:09;;;;;;;17.83;4.75;;;;;;;26.86;46.47;101098.34;5094097;28;20034;-51
2022/09/04 09:57:57;;;;;;;15.88;3.50;;;;;;;26.83;46.48;101096.59;5092833;28;20034;-51
2022/09/04 10:00:26;;;;;;;20.45;4.18;;;;;;;26.82;46.62;101087.81;5090980;28;20082;-51
2022/09/04 10:03:14;;;;;;;14.02;3.85;;;;;;;26.89;46.61;101098.34;5086038;28;20485;-53
2022/09/04 10:06:01;;;;;;;18.70;4.78;;;;;;;26.95;46.51;101099.25;5092943;28;20039;-52
2022/09/04 10:08:57;;;;;;;13.90;3.33;;;;;;;26.96;46.39;101095.75;5079490;28;20032;-53
2022/09/04 10:11:24;;;;;;;;;;;;;;;27.10;46.29;101090.53;5095857;28;20043;-52
2022/09/04 10:14:16;;;;;;;16.35;4.25;;;;;;;27.04;46.36;101093.13;5104215;28;19908;-49
2022/09/04 10:16:48;;;;;;;18.00;4.15;;;;;;;27.02;46.41;101092.25;5077040;28;20484;-50
2022/09/04 10:19:35;;;;;;;18.42;4.45;;;;;;;26.94;46.33;101081.69;5105351;28;20031;-49
2022/09/04 10:22:33;;;;;;;15.88;3.78;;;;;;;27.05;46.61;101083.50;5104032;28;20393;-50
2022/09/04 10:25:17;;;;;;;14.85;4.03;;;;;;;27.19;46.34;101076.50;5095426;28;20477;-53
2022/09/04 10:28:19;;;;;;;17.35;4.13;;;;;;;27.14;46.31;101076.47;5101587;28;20040;-50
2022/09/04 10:31:07;;;;;;;17.40;4.22;;;;;;;27.15;46.34;101074.72;5100729;28;20032;-53
2022/09/04 10:33:59;;;;;;;14.02;3.83;;;;;;;27.17;46.49;101072.06;5092903;28;20036;-53
2022/09/04 10:36:41;;;;;;;19.23;4.18;;;;;;;27.21;46.34;101069.47;5093545;28;20050;-52
2022/09/04 10:42:31;;;;;;;17.10;4.07;;;;;;;27.29;46.23;101065.06;5085679;28;20039;-50
2022/09/04 10:45:04;;;;;;;17.40;3.65;;;;;;;27.25;46.27;101065.94;5103255;28;20020;-50
2022/09/04 10:47:43;;;;;;;13.93;3.78;;;;;;;27.33;46.38;101063.31;5102750;28;20044;-49
2022/09/04 10:50:17;;;;;;;19.83;4.10;;;;;;;27.27;46.48;101051.03;5102639;28;20079;-53
2022/09/04 10:53:07;;;;;;;13.43;3.70;;;;;;;27.28;46.37;101071.22;5101439;28;20028;-50
2022/09/04 10:55:54;;;;;;;18.40;4.43;;;;;;;27.32;46.51;101056.28;5088716;28;20035;-52
2022/09/04 10:58:38;;;;;;;12.60;3.53;;;;;;;27.46;46.36;101064.22;5085806;28;20557;-50
2022/09/04 11:01:15;;;;;;;17.02;3.95;;;;;;;27.49;46.20;101071.25;5099212;28;20035;-52
2022/09/04 11:03:58;;;;;;;18.27;4.10;;;;;;;27.44;46.27;101074.75;5081449;28;20047;-52
2022/09/04 11:06:51;;;;;;;14.50;3.80;;;;;;;27.48;46.12;101067.75;5083946;28;20039;-53
2022/09/04 11:09:51;;;;;;;15.10;3.50;;;;;;;27.31;46.38;101051.88;5082696;28;20016;-53
2022/09/04 11:12:47;;;;;;;15.10;3.50;;;;;;;27.37;46.31;101070.34;5076568;28;20032;-52
2022/09/04 11:15:38;;;;;;;14.10;3.97;;;;;;;27.46;46.53;101079.16;5080490;28;20109;-53
2022/09/04 11:18:44;;;;;;;17.13;3.90;;;;;;;27.48;46.33;101082.66;5062337;28;20121;-49
2022/09/04 11:21:21;;;;;;;16.80;4.20;;;;;;;27.54;46.28;101082.66;5074155;28;20430;-57
2022/09/04 11:23:53;;;;;;;14.48;3.92;;;;;;;27.51;46.41;101085.31;5081145;28;20444;-51
2022/09/04 11:26:30;;;;;;;16.70;4.03;;;;;;;27.50;46.61;101081.81;5080720;28;20024;-53
2022/09/04 11:29:39;;;;;;;17.98;3.85;;;;;;;27.51;46.47;101082.66;5083424;28;20497;-54
2022/09/04 11:32:17;;;;;;;17.65;4.57;;;;;;;27.57;46.42;101086.16;5075405;28;20546;-53
2022/09/04 11:34:49;;;;;;;12.75;3.75;;;;;;;27.57;46.24;101085.31;5081346;28;20107;-52
2022/09/04 11:37:56;;;;;;;19.33;3.95;;;;;;;27.57;46.39;101082.69;5081042;28;20043;-52
2022/09/04 11:40:43;;;;;;;17.65;5.05;;;;;;;27.67;46.28;101080.91;5077089;28;20044;-53
2022/09/04 11:43:49;;;;;;;12.57;3.03;;;;;;;27.63;46.41;101087.06;5078305;28;20090;-53
2022/09/04 11:46:41;;;;;;;14.15;3.63;;;;;;;27.69;46.24;101080.03;5078267;28;20079;-51
2022/09/04 11:49:24;;;;;;;16.05;4.20;;;;;;;27.69;46.39;101093.19;5076324;28;20064;-53
2022/09/04 11:52:13;;;;;;;16.92;4.30;;;;;;;27.73;46.18;101083.53;5078526;28;20024;-52
2022/09/04 11:55:05;;;;;;;17.67;4.10;;;;;;;27.71;46.17;101096.72;5080375;28;20025;-50
2022/09/04 11:58:11;;;;;;;15.73;4.00;;;;;;;27.70;46.29;101088.81;5077705;28;20032;-53
2022/09/04 12:00:58;;;;;;;;;;;;;;;27.81;46.12;101087.03;5069329;28;20123;-53
2022/09/04 12:03:31;;;;;;;15.00;4.60;;;;;;;27.83;45.85;101087.03;5085495;28;19919;-51
2022/09/04 12:06:17;;;;;;;18.92;3.90;;;;;;;27.74;46.20;101095.81;5084502;28;20110;-52
2022/09/04 12:09:10;;;;;;;14.93;3.95;;;;;;;27.73;46.21;101084.41;5101925;28;20028;-51
2022/09/04 12:12:10;;;;;;;13.07;3.45;;;;;;;27.82;46.12;101087.91;5088292;28;20454;-49
2022/09/04 12:15:00;;;;;;;17.80;4.28;;;;;;;27.83;45.93;101084.41;5093636;28;20036;-50
2022/09/04 12:17:48;;;;;;;20.73;5.38;;;;;;;27.83;45.96;101089.66;5093300;28;20405;-52
2022/09/04 12:20:30;;;;;;;15.82;4.18;;;;;;;27.89;45.94;101087.03;5087464;28;20393;-52
2022/09/04 12:23:00;;;;;;;14.30;4.03;;;;;;;27.87;45.84;101084.41;5083159;28;20020;-49
2022/09/04 12:25:51;;;;;;;18.30;4.43;;;;;;;27.90;45.92;101086.16;5100879;28;20027;-51
2022/09/04 12:28:29;;;;;;;15.43;4.82;;;;;;;27.90;45.80;101080.88;5076889;28;20096;-51
2022/09/04 12:31:06;;;;;;;18.38;4.88;;;;;;;27.85;46.08;101087.91;5100621;28;20020;-50
2022/09/04 12:33:45;;;;;;;18.60;4.65;;;;;;;27.89;45.89;101081.75;5101464;28;20020;-52
2022/09/04 12:36:42;;;;;;;16.05;3.72;;;;;;;27.91;46.10;101082.63;5101983;28;20019;-50
2022/09/04 12:39:28;;;;;;;15.55;4.82;;;;;;;27.92;45.72;101087.03;5100120;28;20028;-53
2022/09/04 12:42:04;;;;;;;15.68;3.92;;;;;;;27.97;45.69;101087.03;5089438;28;20031;-51
2022/09/04 12:44:43;;;;;;;17.23;3.67;;;;;;;28.01;45.34;101087.00;5099852;28;20027;-50
2022/09/04 12:47:27;;;;;;;17.67;4.50;;;;;;;28.06;45.51;101081.72;5083340;28;20039;-50
2022/09/04 12:50:17;;;;;;;24.65;4.90;;;;;;;28.02;45.59;101086.13;5079511;28;20020;-50